Time;durP1;ratioP1;P1;durP2;ratioP2;P2;SDS_P1;SDS_P2;PMS_P1;PMS_P2;Temp;Humidity;BMP_temperature;BMP_pressure;BME280_temperature;BME280_humidity;BME280_pressure;Samples;Min_cycle;Max_cycle;Signal;HPM_P1;HPM_P2
2021/12/28 00:00:22;;;;;;;148.65;52.38;;;5.00;99.90;;;;;;4914542;29;20558;-96
2021/12/28 00:02:49;;;;;;;152.90;52.00;;;5.00;99.90;;;;;;4907493;29;20067;-96
2021/12/28 00:05:16;;;;;;;153.23;52.95;;;5.00;99.90;;;;;;4898612;29;20044;-95
2021/12/28 00:07:41;;;;;;;168.05;54.35;;;5.00;99.90;;;;;;4912929;29;20048;-95
2021/12/28 00:10:10;;;;;;;172.95;55.22;;;5.10;99.90;;;;;;4897672;29;20037;-95
2021/12/28 00:12:38;;;;;;;172.70;52.92;;;5.10;99.90;;;;;;4905038;29;20060;-96
2021/12/28 00:15:18;;;;;;;162.00;52.05;;;5.10;99.90;;;;;;4913785;29;20253;-95
2021/12/28 00:17:59;;;;;;;165.27;53.78;;;5.20;99.90;;;;;;4900441;29;20128;-95
2021/12/28 00:20:39;;;;;;;181.77;58.22;;;5.20;99.90;;;;;;4910437;29;20032;-95
2021/12/28 00:23:18;;;;;;;197.00;56.38;;;5.20;99.90;;;;;;4923106;29;20051;-96
2021/12/28 00:25:48;;;;;;;190.73;58.08;;;5.30;99.90;;;;;;4912501;29;20044;-94
2021/12/28 00:28:14;;;;;;;201.80;60.72;;;5.30;99.90;;;;;;4897867;29;20048;-96
2021/12/28 00:30:40;;;;;;;218.98;62.05;;;5.40;99.90;;;;;;4915577;29;20047;-96
2021/12/28 00:33:07;;;;;;;194.15;58.45;;;5.30;99.90;;;;;;4903435;29;20045;-96
2021/12/28 00:35:39;;;;;;;216.63;64.82;;;5.40;99.90;;;;;;4890557;29;20051;-96
2021/12/28 00:38:06;;;;;;;229.43;62.45;;;5.40;99.90;;;;;;4897885;29;20037;-96
2021/12/28 00:40:32;;;;;;;232.80;65.43;;;5.50;99.90;;;;;;4902371;29;20076;-95
2021/12/28 00:42:59;;;;;;;226.00;65.78;;;5.60;99.90;;;;;;4896233;29;20036;-96
2021/12/28 00:45:24;;;;;;;233.93;69.22;;;5.70;99.90;;;;;;4909995;29;20055;-96
2021/12/28 00:47:50;;;;;;;236.05;63.67;;;5.70;99.90;;;;;;4897755;29;20059;-95
2021/12/28 00:50:18;;;;;;;256.42;70.57;;;5.70;99.90;;;;;;4897294;29;20036;-96
2021/12/28 00:52:44;;;;;;;250.57;71.30;;;5.80;99.90;;;;;;4897644;29;20135;-96
2021/12/28 00:55:11;;;;;;;254.45;71.00;;;5.90;99.90;;;;;;4894541;29;20044;-95
2021/12/28 00:57:37;;;;;;;263.92;74.28;;;5.90;99.90;;;;;;4896646;29;20534;-95
2021/12/28 01:00:09;;;;;;;279.60;71.15;;;5.90;99.90;;;;;;4912953;29;20055;-95
2021/12/28 01:02:35;;;;;;;271.75;69.63;;;5.90;99.90;;;;;;4910005;29;20534;-96
2021/12/28 01:05:01;;;;;;;280.92;71.65;;;6.00;99.90;;;;;;4889562;29;20052;-96
2021/12/28 01:07:27;;;;;;;313.52;73.95;;;6.00;99.90;;;;;;4897171;29;20060;-95
2021/12/28 01:09:52;;;;;;;323.85;75.85;;;6.00;99.90;;;;;;4894735;29;20048;-96
2021/12/28 01:12:19;;;;;;;315.05;72.75;;;6.00;99.90;;;;;;4897071;29;20036;-96
2021/12/28 01:14:45;;;;;;;341.50;70.85;;;6.10;99.90;;;;;;4897312;29;20049;-96
2021/12/28 01:17:11;;;;;;;353.30;71.60;;;6.00;99.90;;;;;;4904881;29;20122;-96
2021/12/28 01:19:36;;;;;;;405.60;73.00;;;6.10;99.90;;;;;;4896494;29;20056;-95
2021/12/28 01:22:03;;;;;;;347.75;72.45;;;6.00;99.90;;;;;;4895134;29;20044;-95
2021/12/28 01:24:32;;;;;;;374.92;74.72;;;6.10;99.90;;;;;;4901577;29;20092;-96
2021/12/28 01:26:58;;;;;;;389.55;77.50;;;6.10;99.90;;;;;;4907885;29;20056;-93
2021/12/28 01:29:24;;;;;;;422.40;78.68;;;6.10;99.90;;;;;;4896983;29;20040;-96
2021/12/28 01:31:51;;;;;;;372.30;79.18;;;6.10;99.90;;;;;;4912633;29;20044;-95
2021/12/28 01:34:17;;;;;;;458.05;79.10;;;6.10;99.90;;;;;;4896667;29;20083;-95
2021/12/28 01:36:42;;;;;;;409.27;81.28;;;6.10;99.90;;;;;;4897360;29;20056;-96
2021/12/28 01:39:09;;;;;;;420.92;81.57;;;6.20;99.90;;;;;;4896697;29;20042;-95
2021/12/28 01:41:35;;;;;;;460.33;82.60;;;6.20;99.90;;;;;;4891531;29;20080;-94
2021/12/28 01:44:05;;;;;;;468.23;80.78;;;6.20;99.90;;;;;;4909524;29;20115;-95
2021/12/28 01:46:31;;;;;;;547.15;86.15;;;6.20;99.90;;;;;;4911963;29;20518;-96
2021/12/28 01:48:58;;;;;;;547.88;84.70;;;6.20;99.90;;;;;;4912716;29;20494;-95
2021/12/28 01:51:24;;;;;;;548.78;90.53;;;6.20;99.90;;;;;;4912088;29;20138;-94
2021/12/28 01:53:58;;;;;;;563.65;88.28;;;6.30;99.90;;;;;;4895969;29;20656;-94
2021/12/28 01:56:40;;;;;;;501.23;82.57;;;6.30;99.90;;;;;;4909502;29;20064;-95
2021/12/28 01:59:07;;;;;;;585.33;85.70;;;6.30;99.90;;;;;;4886035;29;20056;-95
2021/12/28 02:01:33;;;;;;;555.75;85.38;;;6.20;99.90;;;;;;4895884;29;20681;-95
2021/12/28 02:03:59;;;;;;;627.55;90.95;;;6.30;99.90;;;;;;4887028;29;20057;-94
2021/12/28 02:06:25;;;;;;;562.42;86.32;;;6.30;99.90;;;;;;4911639;29;20078;-95
2021/12/28 02:08:52;;;;;;;639.42;83.55;;;6.30;99.90;;;;;;4892771;29;20040;-94
2021/12/28 02:11:19;;;;;;;618.28;89.88;;;6.30;99.90;;;;;;4894471;29;20059;-95
2021/12/28 02:13:45;;;;;;;607.33;83.75;;;6.30;99.90;;;;;;4895484;29;20134;-96
2021/12/28 02:16:11;;;;;;;628.20;80.18;;;6.30;99.90;;;;;;4893561;29;20515;-96
2021/12/28 02:18:37;;;;;;;659.47;85.60;;;6.20;99.90;;;;;;4912172;29;20051;-95
2021/12/28 02:21:06;;;;;;;564.83;83.13;;;6.20;99.90;;;;;;4896413;29;20044;-95
2021/12/28 02:23:32;;;;;;;661.10;89.55;;;6.30;99.90;;;;;;4895768;29;20044;-96
2021/12/28 02:25:57;;;;;;;607.38;86.90;;;6.30;99.90;;;;;;4911721;29;20578;-94
2021/12/28 02:28:23;;;;;;;608.20;84.60;;;6.40;99.90;;;;;;4911481;29;20527;-95
2021/12/28 02:30:52;;;;;;;552.00;79.95;;;6.30;99.90;;;;;;4914130;29;20055;-95
2021/12/28 02:33:20;;;;;;;554.45;79.82;;;6.30;99.90;;;;;;4900597;29;20048;-95
2021/12/28 02:35:46;;;;;;;633.22;83.20;;;6.40;99.90;;;;;;4896977;29;20048;-95
2021/12/28 02:38:12;;;;;;;548.10;78.50;;;6.30;99.90;;;;;;4896820;29;20040;-96
2021/12/28 02:40:39;;;;;;;557.85;76.28;;;6.30;99.90;;;;;;4907613;29;20048;-94
2021/12/28 02:43:07;;;;;;;550.63;77.43;;;6.30;99.90;;;;;;4887471;29;20040;-95
2021/12/28 02:45:39;;;;;;;526.45;78.13;;;6.30;99.90;;;;;;4896605;29;20056;-94
2021/12/28 02:48:06;;;;;;;523.95;78.20;;;6.30;99.90;;;;;;4908122;29;20044;-93
2021/12/28 02:50:39;;;;;;;461.45;76.20;;;6.30;99.90;;;;;;4915500;29;20059;-93
2021/12/28 02:53:06;;;;;;;516.75;76.95;;;6.30;99.90;;;;;;4895141;29;20032;-93
2021/12/28 02:55:33;;;;;;;449.52;83.50;;;6.30;99.90;;;;;;4911546;29;20044;-93
2021/12/28 02:58:04;;;;;;;451.58;78.45;;;6.50;99.90;;;;;;4915287;29;20081;-93
2021/12/28 03:00:37;;;;;;;445.50;83.28;;;6.50;99.90;;;;;;4914936;29;20051;-94
2021/12/28 03:03:10;;;;;;;475.25;82.50;;;6.60;99.90;;;;;;4915539;29;20143;-94
2021/12/28 03:05:38;;;;;;;446.85;77.88;;;6.60;99.90;;;;;;4914515;29;20511;-93
2021/12/28 03:08:04;;;;;;;454.05;77.03;;;6.60;99.90;;;;;;4914704;29;20050;-93
2021/12/28 03:10:30;;;;;;;427.05;74.88;;;6.60;99.90;;;;;;4915166;29;20028;-93
2021/12/28 03:12:56;;;;;;;424.83;74.72;;;6.60;99.90;;;;;;4912106;29;20045;-93
2021/12/28 03:15:22;;;;;;;421.25;77.05;;;6.70;99.90;;;;;;4896250;29;20074;-93
2021/12/28 03:17:48;;;;;;;368.20;72.65;;;6.60;99.90;;;;;;4914677;29;20047;-93
2021/12/28 03:20:15;;;;;;;415.75;73.45;;;6.70;99.90;;;;;;4899518;29;20051;-94
2021/12/28 03:22:41;;;;;;;403.23;74.22;;;6.70;99.90;;;;;;4898733;29;20051;-92
2021/12/28 03:25:08;;;;;;;355.33;73.28;;;6.70;99.90;;;;;;4898600;29;20108;-93
2021/12/28 03:27:34;;;;;;;401.55;71.68;;;6.80;99.90;;;;;;4894374;29;20041;-94
2021/12/28 03:30:01;;;;;;;346.65;69.75;;;6.80;99.90;;;;;;4899194;29;20119;-93
2021/12/28 03:32:27;;;;;;;332.27;66.78;;;6.80;99.90;;;;;;4915035;29;20048;-93
2021/12/28 03:34:52;;;;;;;311.92;67.32;;;6.80;99.90;;;;;;4900297;29;20048;-93
2021/12/28 03:37:18;;;;;;;322.45;69.55;;;6.80;99.90;;;;;;4901193;29;20052;-93
2021/12/28 03:39:43;;;;;;;315.02;64.55;;;6.80;99.90;;;;;;4898317;29;20056;-94
2021/12/28 03:42:09;;;;;;;294.15;66.28;;;6.70;99.90;;;;;;4910265;29;20048;-95
2021/12/28 03:44:35;;;;;;;295.98;70.30;;;6.80;99.90;;;;;;4896112;29;20040;-94
2021/12/28 03:47:03;;;;;;;320.60;68.18;;;6.80;99.90;;;;;;4895403;29;20044;-93
2021/12/28 03:49:28;;;;;;;298.50;67.57;;;6.70;99.90;;;;;;4894205;29;20041;-94
2021/12/28 03:51:54;;;;;;;288.15;65.75;;;6.70;99.90;;;;;;4897847;29;20063;-94
2021/12/28 03:54:20;;;;;;;303.00;66.72;;;6.70;99.90;;;;;;4914226;29;20044;-93
2021/12/28 03:56:45;;;;;;;316.05;68.80;;;6.80;99.90;;;;;;4898095;29;20051;-94
2021/12/28 03:59:11;;;;;;;314.23;65.57;;;6.80;99.90;;;;;;4898875;29;20491;-93
2021/12/28 04:01:37;;;;;;;325.38;72.55;;;6.70;99.90;;;;;;4898099;29;20072;-94
2021/12/28 04:04:03;;;;;;;334.38;69.28;;;6.80;99.90;;;;;;4898120;29;20056;-94
2021/12/28 04:06:30;;;;;;;350.42;68.82;;;6.70;99.90;;;;;;4906782;29;20491;-94
2021/12/28 04:08:57;;;;;;;305.00;65.88;;;6.70;99.90;;;;;;4897766;29;20051;-94
2021/12/28 04:13:49;;;;;;;273.25;64.53;;;6.60;99.90;;;;;;4921675;29;20158;-94
2021/12/28 04:16:17;;;;;;;284.67;63.95;;;6.60;99.90;;;;;;4893842;29;20180;-94
2021/12/28 04:18:43;;;;;;;272.98;62.85;;;6.60;99.90;;;;;;4910445;29;20044;-94
2021/12/28 04:21:10;;;;;;;319.85;62.65;;;6.60;99.90;;;;;;4898363;29;20050;-95
2021/12/28 04:23:36;;;;;;;255.20;62.65;;;6.60;99.90;;;;;;4907883;29;20488;-93
2021/12/28 04:26:02;;;;;;;245.20;61.17;;;6.60;99.90;;;;;;4913550;29;20092;-94
2021/12/28 04:28:28;;;;;;;239.88;60.40;;;6.60;99.90;;;;;;4895127;29;20144;-94
2021/12/28 04:30:53;;;;;;;245.18;57.95;;;6.60;99.90;;;;;;4894665;29;20124;-94
2021/12/28 04:33:19;;;;;;;269.20;53.95;;;6.50;99.90;;;;;;4894668;29;20827;-94
2021/12/28 04:35:45;;;;;;;394.67;54.00;;;6.40;99.90;;;;;;4886582;29;20055;-94
2021/12/28 04:38:11;;;;;;;475.92;57.13;;;6.10;99.90;;;;;;4898070;29;20044;-94
2021/12/28 04:40:37;;;;;;;469.17;59.72;;;6.00;99.90;;;;;;4895220;29;20048;-95
2021/12/28 04:43:02;;;;;;;625.17;65.20;;;6.00;99.90;;;;;;4893078;29;20040;-94
2021/12/28 04:45:29;;;;;;;418.42;58.63;;;5.90;99.90;;;;;;4891902;29;20398;-93
2021/12/28 04:47:54;;;;;;;484.90;60.67;;;5.80;99.90;;;;;;4905187;29;20074;-95
2021/12/28 04:50:20;;;;;;;478.58;61.00;;;5.80;99.90;;;;;;4898071;29;20044;-93
2021/12/28 04:52:46;;;;;;;500.65;59.50;;;5.70;99.90;;;;;;4894011;29;20044;-95
2021/12/28 04:55:15;;;;;;;604.70;61.42;;;5.80;99.90;;;;;;4896930;29;20046;-96
2021/12/28 04:57:42;;;;;;;417.15;55.28;;;5.60;99.90;;;;;;4912907;29;20055;-94
2021/12/28 05:00:12;;;;;;;421.55;55.03;;;5.60;99.90;;;;;;4896147;29;20180;-94
2021/12/28 05:02:37;;;;;;;308.20;51.53;;;5.50;99.90;;;;;;4896778;29;20064;-94
2021/12/28 05:05:03;;;;;;;303.83;49.58;;;5.60;99.90;;;;;;4897177;29;20052;-94
2021/12/28 05:07:29;;;;;;;290.63;50.38;;;5.50;99.90;;;;;;4895396;29;20045;-93
2021/12/28 05:09:57;;;;;;;311.00;48.90;;;5.50;99.90;;;;;;4913372;29;20048;-94
2021/12/28 05:12:25;;;;;;;313.95;49.58;;;5.50;99.90;;;;;;4894275;29;20052;-95
2021/12/28 05:14:51;;;;;;;378.17;50.15;;;5.50;99.90;;;;;;4889682;29;20044;-94
2021/12/28 05:17:16;;;;;;;322.85;46.75;;;5.30;99.90;;;;;;4911956;29;20569;-94
2021/12/28 05:19:42;;;;;;;347.45;48.17;;;5.30;99.90;;;;;;4912952;29;20521;-95
2021/12/28 05:22:08;;;;;;;345.65;47.38;;;5.20;99.90;;;;;;4912872;29;20063;-95
2021/12/28 05:24:35;;;;;;;309.55;45.03;;;5.20;99.90;;;;;;4893927;29;20502;-94
2021/12/28 05:27:01;;;;;;;315.83;48.20;;;5.20;99.90;;;;;;4896382;29;20048;-94
2021/12/28 05:29:27;;;;;;;259.23;47.00;;;5.20;99.90;;;;;;4907844;29;20054;-94
2021/12/28 05:31:53;;;;;;;272.85;45.78;;;5.20;99.90;;;;;;4896608;29;20703;-94
2021/12/28 05:34:19;;;;;;;315.25;46.20;;;5.20;99.90;;;;;;4896910;29;20040;-95
2021/12/28 05:36:46;;;;;;;251.25;45.42;;;5.20;99.90;;;;;;4893697;29;20104;-96
2021/12/28 05:39:12;;;;;;;298.38;47.70;;;5.20;99.90;;;;;;4894577;29;20040;-95
2021/12/28 05:41:38;;;;;;;276.08;45.58;;;5.30;99.90;;;;;;4911958;29;20422;-95
2021/12/28 05:44:04;;;;;;;268.25;45.75;;;5.30;99.90;;;;;;4905642;29;20045;-95
2021/12/28 05:46:30;;;;;;;249.63;46.38;;;5.30;99.90;;;;;;4896359;29;20036;-95
2021/12/28 05:48:55;;;;;;;233.43;45.83;;;5.30;99.90;;;;;;4893784;29;20184;-95
2021/12/28 05:51:21;;;;;;;252.98;44.22;;;5.30;99.90;;;;;;4893521;29;20099;-94
2021/12/28 05:53:47;;;;;;;239.52;43.25;;;5.30;99.90;;;;;;4893771;29;20105;-96
2021/12/28 05:56:12;;;;;;;234.32;44.95;;;5.30;99.90;;;;;;4893927;29;20043;-95
2021/12/28 05:58:38;;;;;;;216.82;44.13;;;5.20;99.90;;;;;;4896406;29;20491;-95
2021/12/28 06:01:04;;;;;;;236.85;44.55;;;5.20;99.90;;;;;;4911912;29;20127;-94
2021/12/28 06:03:31;;;;;;;209.95;43.80;;;5.20;99.90;;;;;;4896374;29;20059;-93
2021/12/28 06:05:56;;;;;;;202.85;43.75;;;5.10;99.90;;;;;;4895027;29;20491;-93
2021/12/28 06:08:23;;;;;;;210.38;41.63;;;5.10;99.90;;;;;;4896417;29;20119;-94
2021/12/28 06:10:48;;;;;;;197.95;41.10;;;5.00;99.90;;;;;;4893009;29;20051;-94
2021/12/28 06:13:14;;;;;;;218.32;42.05;;;5.00;99.90;;;;;;4890194;29;20033;-94
2021/12/28 06:15:40;;;;;;;213.52;41.13;;;4.90;99.90;;;;;;4896262;29;20044;-94
2021/12/28 06:18:05;;;;;;;193.27;40.60;;;4.90;99.90;;;;;;4893318;29;20045;-93
2021/12/28 06:20:31;;;;;;;186.90;41.63;;;4.90;99.90;;;;;;4893900;29;20073;-94
2021/12/28 06:22:56;;;;;;;192.50;43.00;;;5.00;99.90;;;;;;4892427;29;20151;-93
2021/12/28 06:25:22;;;;;;;197.20;42.72;;;5.00;99.90;;;;;;4893537;29;20044;-94
2021/12/28 06:27:47;;;;;;;207.23;42.03;;;5.00;99.90;;;;;;4907824;29;20588;-92
2021/12/28 06:30:13;;;;;;;199.55;43.47;;;5.10;99.90;;;;;;4904649;29;20032;-93
2021/12/28 06:32:39;;;;;;;196.77;41.88;;;5.10;99.90;;;;;;4895749;29;20048;-94
2021/12/28 06:35:06;;;;;;;182.43;42.20;;;5.10;99.90;;;;;;4895905;29;20503;-94
2021/12/28 06:37:31;;;;;;;187.07;40.85;;;5.10;99.90;;;;;;4908275;29;20395;-93
2021/12/28 06:39:57;;;;;;;185.75;42.13;;;5.10;99.90;;;;;;4894218;29;20044;-93
2021/12/28 06:42:22;;;;;;;176.25;40.90;;;5.10;99.90;;;;;;4911984;29;20051;-93
2021/12/28 06:44:51;;;;;;;171.55;40.50;;;5.10;99.90;;;;;;4914421;29;20074;-93
2021/12/28 06:47:16;;;;;;;154.05;40.13;;;5.10;99.90;;;;;;4911657;29;20044;-93
2021/12/28 06:49:42;;;;;;;172.57;40.45;;;5.20;99.90;;;;;;4911797;29;20392;-95
2021/12/28 06:52:08;;;;;;;169.88;39.13;;;5.20;99.90;;;;;;4906269;29;20062;-94
2021/12/28 06:54:37;;;;;;;153.50;38.03;;;5.20;99.90;;;;;;4907156;29;20044;-94
2021/12/28 06:57:09;;;;;;;152.48;38.20;;;5.20;99.90;;;;;;4911484;29;20044;-94
2021/12/28 06:59:45;;;;;;;134.15;37.30;;;5.30;99.90;;;;;;4893570;29;20032;-93
2021/12/28 07:02:12;;;;;;;139.25;36.72;;;5.40;99.90;;;;;;4895689;29;20068;-93
2021/12/28 07:04:38;;;;;;;131.57;35.67;;;5.40;99.90;;;;;;4911997;29;20103;-93
2021/12/28 07:07:05;;;;;;;117.38;36.13;;;5.40;99.90;;;;;;4895796;29;20052;-94
2021/12/28 07:09:31;;;;;;;122.88;34.75;;;5.50;99.90;;;;;;4892987;29;20045;-93
2021/12/28 07:11:57;;;;;;;118.38;35.30;;;5.50;99.90;;;;;;4911161;29;20055;-94
2021/12/28 07:14:22;;;;;;;122.07;34.75;;;5.50;99.90;;;;;;4895447;29;20040;-95
2021/12/28 07:16:48;;;;;;;111.50;34.33;;;5.60;99.90;;;;;;4897983;29;20131;-94
2021/12/28 07:19:14;;;;;;;113.10;32.95;;;5.60;99.90;;;;;;4915126;29;20075;-93
2021/12/28 07:21:40;;;;;;;114.28;32.50;;;5.60;99.90;;;;;;4912931;29;20124;-94
2021/12/28 07:24:07;;;;;;;105.57;31.75;;;5.60;99.90;;;;;;4896745;29;20052;-94
2021/12/28 07:26:34;;;;;;;93.18;31.20;;;5.60;99.90;;;;;;4895756;29;20184;-95
2021/12/28 07:29:00;;;;;;;106.25;31.65;;;5.70;99.90;;;;;;4906624;29;20055;-95
2021/12/28 07:31:27;;;;;;;97.28;30.48;;;5.70;99.90;;;;;;4897062;29;20055;-96
2021/12/28 07:33:53;;;;;;;97.78;29.83;;;5.70;99.90;;;;;;4893617;29;20040;-95
2021/12/28 07:36:19;;;;;;;97.70;30.70;;;5.70;99.90;;;;;;4890018;29;20420;-96
2021/12/28 07:38:45;;;;;;;87.45;28.58;;;5.60;99.90;;;;;;4909454;29;20075;-96
2021/12/28 07:41:10;;;;;;;89.53;29.70;;;5.60;99.90;;;;;;4911460;29;20048;-96
2021/12/28 07:43:36;;;;;;;89.55;30.10;;;5.60;99.90;;;;;;4893246;29;20048;-96
2021/12/28 07:46:02;;;;;;;90.20;28.48;;;5.60;99.90;;;;;;4890153;29;20047;-96
2021/12/28 07:48:27;;;;;;;90.72;28.85;;;5.50;99.90;;;;;;4912983;29;20086;-96
2021/12/28 07:50:53;;;;;;;84.32;28.25;;;5.60;99.90;;;;;;4894277;29;20051;-96
2021/12/28 07:53:19;;;;;;;95.00;29.25;;;5.60;99.90;;;;;;4900515;29;20056;-96
2021/12/28 07:55:44;;;;;;;86.18;29.73;;;5.70;99.90;;;;;;4900059;29;20048;-96
2021/12/28 07:58:10;;;;;;;91.13;27.80;;;5.70;99.90;;;;;;4905140;29;20047;-96
2021/12/28 08:00:43;;;;;;;79.63;27.95;;;5.70;99.90;;;;;;4918673;29;20048;-96
2021/12/28 08:03:10;;;;;;;78.05;28.38;;;5.70;99.90;;;;;;4899153;29;20056;-95
2021/12/28 08:05:36;;;;;;;87.75;27.38;;;5.70;99.90;;;;;;4891888;29;20467;-96
2021/12/28 08:08:03;;;;;;;81.68;28.38;;;5.70;99.90;;;;;;4888322;29;20495;-95
2021/12/28 08:10:32;;;;;;;89.82;28.77;;;5.70;99.90;;;;;;4900786;29;20044;-96
2021/12/28 08:12:58;;;;;;;83.35;28.08;;;5.70;99.90;;;;;;4914693;29;20062;-96
2021/12/28 08:15:39;;;;;;;78.65;28.33;;;5.70;99.90;;;;;;4927600;29;20076;-96
2021/12/28 08:18:11;;;;;;;87.93;28.30;;;5.80;99.90;;;;;;4927086;29;20132;-96
2021/12/28 08:20:39;;;;;;;91.93;28.08;;;5.80;99.90;;;;;;4899720;29;20076;-96
2021/12/28 08:23:06;;;;;;;98.28;27.85;;;5.80;99.90;;;;;;4923097;29;20062;-96
2021/12/28 08:25:32;;;;;;;70.78;27.15;;;5.80;99.90;;;;;;4903234;29;20051;-96
2021/12/28 08:28:00;;;;;;;74.68;27.67;;;5.80;99.90;;;;;;4882082;29;20052;-96
2021/12/28 08:30:26;;;;;;;80.07;27.02;;;5.90;99.90;;;;;;4896902;29;20513;-96
2021/12/28 08:32:51;;;;;;;75.32;27.77;;;5.90;99.90;;;;;;4895382;29;20048;-96
2021/12/28 08:35:18;;;;;;;81.93;27.38;;;5.80;99.90;;;;;;4891940;29;20439;-96
2021/12/28 08:37:44;;;;;;;81.93;27.38;;;5.80;99.90;;;;;;4895037;29;20373;-95
2021/12/28 08:40:12;;;;;;;87.82;27.75;;;5.80;99.90;;;;;;4888480;29;20100;-96
2021/12/28 08:42:44;;;;;;;79.47;27.13;;;5.80;99.90;;;;;;4909924;29;20076;-96
2021/12/28 08:45:20;;;;;;;74.32;26.17;;;5.90;99.90;;;;;;4918655;29;20052;-96
2021/12/28 08:47:50;;;;;;;78.05;27.27;;;5.90;99.90;;;;;;4891516;29;20056;-96
2021/12/28 08:50:17;;;;;;;77.45;27.80;;;5.90;99.90;;;;;;4860506;29;20059;-95
2021/12/28 08:52:42;;;;;;;79.85;26.33;;;5.90;99.90;;;;;;4892933;29;20127;-95
2021/12/28 08:55:08;;;;;;;69.70;25.05;;;5.90;99.90;;;;;;4861880;29;20056;-95
2021/12/28 08:57:34;;;;;;;70.03;24.92;;;5.80;99.90;;;;;;4873315;29;20367;-95
2021/12/28 09:00:00;;;;;;;72.68;25.00;;;5.80;99.90;;;;;;4855669;29;20096;-94
2021/12/28 09:02:25;;;;;;;73.97;25.00;;;5.70;99.90;;;;;;4881345;29;20064;-95
2021/12/28 09:04:51;;;;;;;68.13;23.58;;;5.70;99.90;;;;;;4876252;29;20077;-96
2021/12/28 09:07:18;;;;;;;70.45;24.60;;;5.70;99.90;;;;;;4861269;29;20051;-96
2021/12/28 09:09:45;;;;;;;77.18;24.63;;;5.70;99.90;;;;;;4876036;29;20112;-96
2021/12/28 09:12:12;;;;;;;76.88;25.77;;;5.80;99.90;;;;;;4879111;29;20056;-96
2021/12/28 09:14:39;;;;;;;71.75;24.23;;;5.80;99.90;;;;;;4874634;29;20466;-96
2021/12/28 09:17:06;;;;;;;87.10;25.20;;;5.90;99.90;;;;;;4901499;29;20063;-96
2021/12/28 09:19:31;;;;;;;74.15;24.33;;;5.90;99.90;;;;;;4894376;29;20053;-96
2021/12/28 09:21:58;;;;;;;73.90;23.85;;;6.00;99.90;;;;;;4897584;29;20054;-96
2021/12/28 09:24:24;;;;;;;72.18;24.33;;;6.10;99.90;;;;;;4907140;29;20044;-96
2021/12/28 09:26:51;;;;;;;67.05;23.27;;;6.20;99.90;;;;;;4906114;29;20571;-96
2021/12/28 09:29:17;;;;;;;67.43;22.50;;;6.20;99.90;;;;;;4906202;29;20108;-96
2021/12/28 09:38:53;;;;;;;58.33;18.45;;;6.60;99.90;;;;;;4897733;29;20040;-96
2021/12/28 09:41:19;;;;;;;54.55;19.05;;;6.80;99.90;;;;;;4871694;29;20070;-96
2021/12/28 09:43:49;;;;;;;55.50;18.42;;;6.90;99.90;;;;;;4855315;29;20436;-96
2021/12/28 09:46:15;;;;;;;47.33;18.20;;;6.90;99.90;;;;;;4848711;29;20053;-96
2021/12/28 09:48:41;;;;;;;49.35;16.38;;;7.00;99.90;;;;;;4842369;29;20050;-96
2021/12/28 09:51:07;;;;;;;49.50;16.13;;;7.00;99.90;;;;;;4859769;29;20056;-96
2021/12/28 09:53:35;;;;;;;50.78;16.35;;;7.10;99.90;;;;;;4859669;29;20045;-96
2021/12/28 09:56:02;;;;;;;46.28;15.93;;;7.10;99.90;;;;;;4855782;29;20118;-95
2021/12/28 09:58:27;;;;;;;43.85;15.18;;;7.10;99.90;;;;;;4851219;29;20061;-96
2021/12/28 10:00:53;;;;;;;44.63;15.60;;;7.20;99.90;;;;;;4832009;29;20049;-96
2021/12/28 10:03:18;;;;;;;48.75;15.73;;;7.20;99.90;;;;;;4841714;29;20060;-96
2021/12/28 10:05:44;;;;;;;49.00;15.70;;;7.20;99.90;;;;;;4834091;29;20080;-96
2021/12/28 10:08:10;;;;;;;52.75;16.67;;;7.20;99.90;;;;;;4839448;29;20167;-95
2021/12/28 10:10:40;;;;;;;53.90;17.13;;;7.20;99.90;;;;;;4828760;29;20175;-95
2021/12/28 10:13:20;;;;;;;48.70;15.80;;;7.20;99.90;;;;;;4896356;29;20084;-95
2021/12/28 10:15:48;;;;;;;51.22;16.17;;;7.20;99.90;;;;;;4896245;29;20044;-96
2021/12/28 10:18:15;;;;;;;51.10;17.23;;;7.20;99.90;;;;;;4903494;29;20060;-94
2021/12/28 10:20:53;;;;;;;55.55;16.77;;;7.20;99.90;;;;;;4893718;29;20051;-95
2021/12/28 10:23:22;;;;;;;56.67;17.52;;;7.20;99.90;;;;;;4905191;29;20103;-94
2021/12/28 10:26:11;;;;;;;53.65;16.77;;;7.20;99.90;;;;;;4896644;29;20041;-96
2021/12/28 10:28:39;;;;;;;58.70;18.38;;;7.20;99.90;;;;;;4891203;29;20113;-96
2021/12/28 10:31:09;;;;;;;61.85;18.08;;;7.20;99.90;;;;;;4890828;29;20051;-96
2021/12/28 10:33:37;;;;;;;61.33;19.33;;;7.20;99.90;;;;;;4880440;29;20055;-94
2021/12/28 10:36:13;;;;;;;65.22;20.75;;;7.20;99.90;;;;;;4892935;29;20044;-94
2021/12/28 10:38:50;;;;;;;56.80;21.63;;;7.30;99.90;;;;;;4893953;29;20055;-92
2021/12/28 10:41:19;;;;;;;54.95;20.30;;;7.30;99.90;;;;;;4877922;29;20045;-95
2021/12/28 10:43:49;;;;;;;55.35;19.90;;;7.40;99.90;;;;;;4889499;29;20052;-94
2021/12/28 10:46:20;;;;;;;65.57;21.65;;;7.30;99.90;;;;;;4909387;29;20048;-94
2021/12/28 10:48:50;;;;;;;58.38;22.40;;;7.40;99.90;;;;;;4886987;29;20091;-94
2021/12/28 10:51:31;;;;;;;57.03;23.40;;;7.50;99.90;;;;;;4908605;29;20041;-94
2021/12/28 10:56:37;;;;;;;54.05;24.02;;;7.60;99.90;;;;;;4904204;29;20060;-93
2021/12/28 10:59:05;;;;;;;61.40;24.13;;;7.60;99.90;;;;;;4898754;29;20036;-93
2021/12/28 11:01:34;;;;;;;57.28;24.27;;;7.60;99.90;;;;;;4899715;29;20048;-94
2021/12/28 11:04:09;;;;;;;66.60;24.95;;;7.60;99.90;;;;;;4897221;29;20517;-92
2021/12/28 11:06:47;;;;;;;62.67;24.48;;;7.70;99.90;;;;;;4911912;29;20049;-94
2021/12/28 11:09:27;;;;;;;58.28;25.02;;;7.70;99.90;;;;;;4881412;29;20068;-92
2021/12/28 11:11:55;;;;;;;64.30;25.08;;;7.70;99.90;;;;;;4888914;29;20060;-94
2021/12/28 11:14:26;;;;;;;61.40;25.13;;;7.70;99.90;;;;;;4896986;29;20739;-92
2021/12/28 11:17:03;;;;;;;65.22;24.63;;;7.70;99.90;;;;;;4897648;29;20052;-92
2021/12/28 11:19:35;;;;;;;70.20;24.80;;;7.60;99.90;;;;;;4899515;29;20048;-91
2021/12/28 11:22:11;;;;;;;64.47;25.63;;;7.60;99.90;;;;;;4899284;29;20080;-92
2021/12/28 11:24:47;;;;;;;64.75;25.95;;;7.60;99.90;;;;;;4898921;29;20053;-92
2021/12/28 11:27:27;;;;;;;67.13;26.73;;;7.60;99.90;;;;;;4907626;29;20052;-92
2021/12/28 11:29:53;;;;;;;71.15;27.63;;;7.60;99.90;;;;;;4930540;29;20044;-91
2021/12/28 11:32:20;;;;;;;71.50;27.73;;;7.50;99.90;;;;;;4927552;29;20137;-91
2021/12/28 11:34:46;;;;;;;68.18;26.55;;;7.50;99.90;;;;;;4927688;29;20041;-92
2021/12/28 11:37:20;;;;;;;67.53;27.35;;;7.50;99.90;;;;;;4927896;29;20036;-93
2021/12/28 11:39:49;;;;;;;71.65;28.13;;;7.50;99.90;;;;;;4909512;29;20071;-92
2021/12/28 11:42:17;;;;;;;66.53;27.55;;;7.50;99.90;;;;;;4898946;29;20040;-92
2021/12/28 11:44:43;;;;;;;62.78;25.35;;;7.50;99.90;;;;;;4895586;29;20051;-93
2021/12/28 11:47:10;;;;;;;57.22;25.08;;;7.50;99.90;;;;;;4882787;29;20131;-92
2021/12/28 11:49:38;;;;;;;60.80;25.15;;;7.50;99.90;;;;;;4898643;29;20111;-93
2021/12/28 11:52:07;;;;;;;55.35;25.58;;;7.50;99.90;;;;;;4898361;29;20052;-93
2021/12/28 11:54:37;;;;;;;55.55;25.67;;;7.60;99.90;;;;;;4890101;29;20067;-92
2021/12/28 11:57:26;;;;;;;52.33;24.42;;;7.60;99.90;;;;;;4896248;29;20131;-93
2021/12/28 11:59:54;;;;;;;56.88;25.40;;;7.60;99.90;;;;;;4893795;29;20041;-93
2021/12/28 12:02:20;;;;;;;53.15;24.17;;;7.70;99.90;;;;;;4897085;29;20546;-94
2021/12/28 12:04:52;;;;;;;53.50;22.98;;;7.70;99.90;;;;;;4912043;29;20503;-94
2021/12/28 12:07:17;;;;;;;61.58;24.95;;;7.70;99.90;;;;;;4910116;29;20044;-93
2021/12/28 12:09:49;;;;;;;55.72;24.27;;;7.70;99.90;;;;;;4913467;29;20408;-94
2021/12/28 12:12:18;;;;;;;52.42;25.52;;;7.70;99.90;;;;;;4897996;29;20079;-96
2021/12/28 12:15:00;;;;;;;55.35;25.08;;;7.80;99.90;;;;;;4914362;29;20713;-95
2021/12/28 12:17:37;;;;;;;61.83;26.17;;;7.80;99.90;;;;;;4913304;29;20050;-94
2021/12/28 12:20:18;;;;;;;62.80;25.52;;;7.80;99.90;;;;;;4892620;29;20053;-92
2021/12/28 12:23:09;;;;;;;63.50;26.23;;;7.90;99.90;;;;;;4898749;29;20055;-94
2021/12/28 12:26:24;;;;;;;61.05;27.08;;;7.90;99.90;;;;;;4909319;29;20060;-95
2021/12/28 12:29:23;;;;;;;61.85;26.50;;;7.90;99.90;;;;;;4907387;29;20048;-96
2021/12/28 12:31:49;;;;;;;65.45;28.45;;;7.90;99.90;;;;;;4912742;29;20044;-95
2021/12/28 12:34:38;;;;;;;69.60;29.52;;;7.90;99.90;;;;;;4927746;29;20084;-96
2021/12/28 12:37:42;;;;;;;77.13;28.42;;;8.00;99.90;;;;;;4905138;29;20116;-96
2021/12/28 12:40:12;;;;;;;64.75;29.52;;;7.90;99.90;;;;;;4901757;29;20055;-96
2021/12/28 12:43:04;;;;;;;61.67;28.33;;;8.00;99.90;;;;;;4919278;29;20062;-96
2021/12/28 12:46:11;;;;;;;64.60;28.10;;;7.90;99.90;;;;;;4883172;29;20059;-96
2021/12/28 12:48:37;;;;;;;60.58;28.38;;;8.00;99.90;;;;;;4937101;29;20574;-95